This is the latest recevied weather packets stored in our database for station/object EA3EH-1. If no packets are shown the sender has not sent any weather packets the latest 10 day(s).
| Time | Temp. | Humidity | Pressure | Rain* | Wind** | Luminosity | Snow |
|---|---|---|---|---|---|---|---|
| 1777149404 | 15.56° C | 56% | 1014 hPa | 0 mm | - | - | - |
| 1777149106 | 15.56° C | 55% | 1014 hPa | 0 mm | - | - | - |
| 1777148504 | 15.56° C | 51% | 1014 hPa | 0 mm | - | - | - |
| 1777147006 | 16.67° C | 47% | 1014 hPa | 0 mm | - | - | - |
| 1777146704 | 16.67° C | 46% | 1014 hPa | 0 mm | - | - | - |
| 1777144304 | 17.78° C | 45% | 1014 hPa | 0 mm | - | - | - |
| 1777143404 | 18.33° C | 41% | 1013 hPa | 0 mm | - | - | - |
| 1777142805 | 18.89° C | 39% | 1013 hPa | 0 mm | - | - | - |
| 1777142204 | 19.44° C | 38% | 1013 hPa | 0 mm | - | - | - |
| 1777141904 | 19.44° C | 36% | 1013 hPa | 0 mm | - | - | - |
| 1777141606 | 19.44° C | 35% | 1013 hPa | 0 mm | - | - | - |
| 1777141309 | 20° C | 35% | 1013 hPa | 0 mm | - | - | - |
| 1777138907 | 21.11° C | 29% | 1013 hPa | 0 mm | - | - | - |
| 1777138304 | 21.11° C | 32% | 1013 hPa | 0 mm | - | - | - |
| 1777136204 | 22.22° C | 22% | 1013 hPa | 0 mm | - | - | - |
| 1777135304 | 22.78° C | 21% | 1013 hPa | 0 mm | - | - | - |
| 1777135004 | 22.78° C | 18% | 1013 hPa | 0 mm | - | - | - |
| 1777134405 | 22.78° C | 18% | 1013 hPa | 0 mm | - | - | - |
| 1777133506 | 22.78° C | 16% | 1013 hPa | 0 mm | - | - | - |
| 1777132605 | 23.89° C | 13% | 1013 hPa | 0 mm | - | - | - |
| 1777132005 | 23.89° C | 13% | 1013 hPa | 0 mm | - | - | - |
| 1777131104 | 24.44° C | 13% | 1013 hPa | 0 mm | - | - | - |
| 1777130804 | 24.44° C | 13% | 1013 hPa | 0 mm | - | - | - |
| 1777130205 | 25° C | 13% | 1013 hPa | 0 mm | - | - | - |
| 1777129606 | 25° C | 13% | 1013 hPa | 0 mm | - | - | - |
* Rain latest hour (hover to see other rain measurements)
** Current wind speed in m/s (hover to see current wind gust speed)